createdAt,value
2018-06-28T00:00:21.854Z,55.01
2018-06-28T00:01:21.873Z,54.33
2018-06-28T00:02:42.913Z,55.10
2018-06-28T00:03:21.926Z,55.01
2018-06-28T00:04:21.945Z,55.01
2018-06-28T00:05:21.973Z,54.62
2018-06-28T00:06:21.997Z,54.53
2018-06-28T00:07:22.017Z,54.72
2018-06-28T00:08:43.066Z,54.62
2018-06-28T00:09:22.068Z,55.01
2018-06-28T00:10:22.092Z,54.91
2018-06-28T00:11:22.114Z,54.72
2018-06-28T00:12:22.136Z,55.01
2018-06-28T00:13:22.157Z,54.91
2018-06-28T00:14:43.198Z,55.01
2018-06-28T00:15:22.227Z,54.91
2018-06-28T00:16:22.249Z,55.01
2018-06-28T00:17:22.256Z,55.01
2018-06-28T00:18:22.283Z,55.20
2018-06-28T00:19:22.299Z,55.01
2018-06-28T00:20:43.340Z,55.10
2018-06-28T00:21:22.350Z,55.10
2018-06-28T00:22:22.373Z,55.10
2018-06-28T00:23:22.393Z,55.01
2018-06-28T00:24:22.420Z,54.91
2018-06-28T00:25:22.445Z,55.01
2018-06-28T00:26:43.492Z,54.91
2018-06-28T00:27:22.495Z,54.91
2018-06-28T00:28:22.517Z,54.82
2018-06-28T00:29:22.536Z,55.49
2018-06-28T00:30:22.560Z,55.20
2018-06-28T00:31:22.587Z,55.36
2018-06-28T00:32:43.625Z,55.49
2018-06-28T00:33:22.629Z,55.20
2018-06-28T00:34:22.652Z,55.40
2018-06-28T00:35:22.678Z,55.30
2018-06-28T00:36:22.701Z,55.18
2018-06-28T00:37:22.727Z,55.30
2018-06-28T00:38:43.770Z,55.27
2018-06-28T00:39:22.768Z,55.36
2018-06-28T00:40:22.793Z,55.59
2018-06-28T00:41:22.821Z,55.49
2018-06-28T00:42:22.845Z,55.27
2018-06-28T00:43:22.870Z,55.40
2018-06-28T00:44:43.908Z,55.56
2018-06-28T00:45:22.916Z,55.49
2018-06-28T00:46:22.936Z,55.68
2018-06-28T00:47:22.963Z,55.59
2018-06-28T00:48:22.981Z,55.46
2018-06-28T00:49:23.005Z,55.78
2018-06-28T00:50:44.047Z,55.59
2018-06-28T00:51:23.054Z,55.78
2018-06-28T00:52:23.081Z,55.56
2018-06-28T00:53:23.104Z,55.66
2018-06-28T00:54:23.127Z,55.46
2018-06-28T00:55:23.148Z,55.30
2018-06-28T00:56:44.190Z,55.76
2018-06-28T00:57:23.197Z,55.98
2018-06-28T00:58:23.218Z,55.76
2018-06-28T00:59:23.244Z,55.59
2018-06-28T01:00:23.262Z,55.76
2018-06-28T01:01:23.286Z,55.66
2018-06-28T01:02:44.332Z,55.78
2018-06-28T01:03:23.343Z,55.66
2018-06-28T01:04:23.357Z,55.66
2018-06-28T01:05:23.382Z,55.78
2018-06-28T01:06:23.407Z,55.76
2018-06-28T01:07:23.428Z,55.56
2018-06-28T01:08:44.471Z,55.88
2018-06-28T01:09:23.477Z,55.68
2018-06-28T01:10:23.499Z,55.68
2018-06-28T01:11:23.521Z,55.78
2018-06-28T01:12:23.549Z,55.68
2018-06-28T01:13:23.571Z,55.98
2018-06-28T01:14:44.615Z,55.30
2018-06-28T01:15:23.619Z,55.94
2018-06-28T01:16:23.639Z,55.27
2018-06-28T01:17:23.663Z,55.66
2018-06-28T01:18:23.689Z,55.59
2018-06-28T01:19:23.712Z,55.94
2018-06-28T01:20:44.745Z,55.68
2018-06-28T01:21:23.755Z,55.40
2018-06-28T01:22:23.779Z,55.78
2018-06-28T01:23:23.809Z,55.85
2018-06-28T01:24:23.830Z,55.76
2018-06-28T01:25:23.860Z,55.85
2018-06-28T01:26:44.891Z,55.85
2018-06-28T01:27:23.901Z,55.08
2018-06-28T01:28:23.929Z,55.56
2018-06-28T01:29:23.947Z,55.76
2018-06-28T01:30:23.969Z,55.08
2018-06-28T01:31:23.993Z,55.85
2018-06-28T01:32:45.028Z,55.46
2018-06-28T01:33:24.035Z,55.76
2018-06-28T01:34:24.064Z,55.76
2018-06-28T01:35:24.097Z,55.27
2018-06-28T01:36:24.107Z,55.46
2018-06-28T01:37:24.131Z,55.56
2018-06-28T01:38:45.171Z,56.04
2018-06-28T01:39:24.176Z,55.56
2018-06-28T01:40:24.205Z,55.56
2018-06-28T01:41:24.227Z,55.85
2018-06-28T01:42:24.251Z,55.27
2018-06-28T01:43:24.275Z,55.94
2018-06-28T01:44:45.308Z,55.76
2018-06-28T01:45:24.320Z,55.85
2018-06-28T01:46:24.342Z,55.85
2018-06-28T01:47:24.366Z,55.76
2018-06-28T01:48:24.395Z,55.76
2018-06-28T01:49:24.437Z,55.76
2018-06-28T01:50:45.451Z,55.85
2018-06-28T01:51:24.460Z,55.66
2018-06-28T01:52:24.484Z,55.85
2018-06-28T01:53:24.511Z,55.85
2018-06-28T01:54:24.535Z,55.85
2018-06-28T01:55:24.557Z,55.85
2018-06-28T01:56:45.591Z,55.76
2018-06-28T01:57:24.599Z,55.94
2018-06-28T01:58:24.627Z,55.66
2018-06-28T01:59:24.652Z,55.85
2018-06-28T02:00:24.668Z,55.76
2018-06-28T02:01:24.694Z,55.94
2018-06-28T02:02:45.736Z,55.94
2018-06-28T02:03:24.741Z,55.85
2018-06-28T02:04:24.768Z,55.56
2018-06-28T02:05:24.788Z,55.56
2018-06-28T02:06:24.810Z,55.94
2018-06-28T02:07:24.838Z,55.56
2018-06-28T02:08:45.879Z,55.76
2018-06-28T02:09:24.888Z,55.76
2018-06-28T02:10:24.911Z,55.56
2018-06-28T02:11:24.929Z,55.94
2018-06-28T02:12:24.950Z,55.66
2018-06-28T02:13:24.972Z,56.24
2018-06-28T02:14:46.017Z,55.76
2018-06-28T02:15:25.023Z,55.56
2018-06-28T02:16:25.043Z,55.56
2018-06-28T02:17:25.065Z,55.76
2018-06-28T02:18:25.091Z,55.56
2018-06-28T02:19:25.118Z,55.85
2018-06-28T02:20:46.161Z,55.66
2018-06-28T02:21:25.164Z,56.24
2018-06-28T02:22:25.184Z,55.56
2018-06-28T02:23:25.205Z,55.56
2018-06-28T02:24:25.235Z,55.56
2018-06-28T02:25:25.259Z,55.56
2018-06-28T02:26:46.346Z,55.94
2018-06-28T02:27:25.305Z,55.85
2018-06-28T02:28:25.324Z,55.85
2018-06-28T02:29:25.349Z,55.94
2018-06-28T02:30:25.378Z,55.56
2018-06-28T02:31:25.398Z,55.56
2018-06-28T02:32:46.438Z,55.94
2018-06-28T02:33:25.444Z,55.66
2018-06-28T02:34:25.471Z,55.85
2018-06-28T02:35:25.485Z,55.76
2018-06-28T02:36:25.513Z,55.66
2018-06-28T02:37:25.537Z,55.85
2018-06-28T02:38:46.574Z,55.94
2018-06-28T02:39:25.584Z,55.85
2018-06-28T02:40:25.608Z,56.04
2018-06-28T02:41:25.634Z,55.85
2018-06-28T02:42:25.661Z,55.85
2018-06-28T02:43:25.678Z,55.76
2018-06-28T02:44:46.719Z,55.94
2018-06-28T02:45:25.721Z,55.76
2018-06-28T02:46:25.750Z,55.76
2018-06-28T02:47:25.772Z,55.85
2018-06-28T02:48:25.792Z,55.85
2018-06-28T02:49:25.816Z,55.85
2018-06-28T02:50:46.855Z,55.94
2018-06-28T02:51:25.860Z,55.56
2018-06-28T02:52:25.888Z,55.66
2018-06-28T02:53:25.909Z,55.66
2018-06-28T02:54:25.931Z,55.76
2018-06-28T02:55:25.959Z,56.04
2018-06-28T02:56:46.998Z,55.85
2018-06-28T02:57:26.007Z,55.85
2018-06-28T02:58:26.039Z,55.66
2018-06-28T02:59:26.055Z,55.76
2018-06-28T03:00:26.070Z,55.56
2018-06-28T03:01:26.093Z,55.56
2018-06-28T03:02:47.138Z,55.76
2018-06-28T03:03:26.144Z,55.94
2018-06-28T03:04:26.164Z,55.94
2018-06-28T03:05:26.186Z,55.66
2018-06-28T03:06:26.211Z,55.76
2018-06-28T03:07:26.239Z,55.85
2018-06-28T03:08:47.282Z,55.76
2018-06-28T03:09:26.287Z,55.66
2018-06-28T03:10:26.306Z,55.76
2018-06-28T03:11:26.327Z,55.85
2018-06-28T03:12:26.355Z,55.56
2018-06-28T03:13:26.377Z,55.46
2018-06-28T03:14:47.423Z,55.76
2018-06-28T03:15:26.425Z,55.94
2018-06-28T03:16:26.451Z,55.85
2018-06-28T03:17:26.468Z,55.85
2018-06-28T03:18:26.495Z,55.85
2018-06-28T03:19:26.522Z,55.46
2018-06-28T03:20:47.553Z,55.78
2018-06-28T03:21:26.586Z,55.88
2018-06-28T03:22:26.583Z,55.59
2018-06-28T03:23:26.609Z,55.30
2018-06-28T03:24:26.634Z,55.10
2018-06-28T03:25:26.656Z,54.82
2018-06-28T03:26:47.695Z,54.07
2018-06-28T03:27:26.702Z,54.27
2018-06-28T03:28:26.728Z,54.36
2018-06-28T03:29:26.752Z,53.88
2018-06-28T03:30:26.782Z,53.69
2018-06-28T03:31:26.801Z,53.69
2018-06-28T03:32:47.834Z,53.49
2018-06-28T03:33:26.839Z,52.75
2018-06-28T03:34:26.868Z,52.84
2018-06-28T03:35:26.890Z,52.65
2018-06-28T03:36:26.910Z,52.36
2018-06-28T03:37:26.939Z,52.55
2018-06-28T03:38:47.980Z,52.29
2018-06-28T03:39:27.000Z,52.48
2018-06-28T03:40:27.010Z,51.51
2018-06-28T03:41:27.037Z,51.61
2018-06-28T03:42:27.052Z,51.51
2018-06-28T03:43:27.076Z,51.42
2018-06-28T03:44:48.124Z,51.51
2018-06-28T03:45:27.128Z,51.32
2018-06-28T03:46:27.155Z,51.42
2018-06-28T03:47:27.184Z,51.32
2018-06-28T03:48:27.197Z,51.03
2018-06-28T03:49:27.223Z,50.76
2018-06-28T03:50:48.260Z,50.96
2018-06-28T03:51:27.272Z,50.28
2018-06-28T03:52:27.297Z,50.02
2018-06-28T03:53:27.321Z,49.92
2018-06-28T03:54:27.353Z,48.79
2018-06-28T03:55:27.372Z,48.03
2018-06-28T03:56:48.410Z,47.19
2018-06-28T03:57:27.487Z,46.60
2018-06-28T03:58:27.442Z,45.75
2018-06-28T03:59:27.468Z,45.10
2018-06-28T04:00:27.487Z,44.34
2018-06-28T04:01:27.512Z,44.24
2018-06-28T04:02:48.557Z,43.30
2018-06-28T04:03:27.568Z,43.22
2018-06-28T04:04:27.590Z,42.15
2018-06-28T04:05:27.617Z,41.69
2018-06-28T04:06:27.688Z,41.59
2018-06-28T04:07:27.663Z,41.32
2018-06-28T04:08:48.710Z,41.03
2018-06-28T04:09:27.722Z,40.25
2018-06-28T04:10:27.741Z,40.17
2018-06-28T04:11:27.765Z,39.49
2018-06-28T04:12:27.786Z,39.31
2018-06-28T04:13:27.811Z,39.12
2018-06-28T04:14:48.860Z,38.75
2018-06-28T04:15:27.868Z,38.09
2018-06-28T04:16:27.892Z,37.99
2018-06-28T04:17:27.916Z,37.21
2018-06-28T04:18:27.939Z,37.04
2018-06-28T04:19:27.965Z,36.74
2018-06-28T04:20:49.011Z,36.27
2018-06-28T04:21:28.022Z,35.88
2018-06-28T04:22:28.042Z,35.61
2018-06-28T04:23:28.072Z,35.43
2018-06-28T04:24:28.099Z,35.04
2018-06-28T04:25:28.128Z,34.55
2018-06-28T04:26:49.172Z,34.18
2018-06-28T04:27:28.181Z,34.18
2018-06-28T04:28:28.204Z,33.61
2018-06-28T04:29:28.230Z,33.02
2018-06-28T04:30:28.260Z,33.31
2018-06-28T04:31:28.289Z,32.94
2018-06-28T04:32:49.328Z,32.75
2018-06-28T04:33:28.337Z,32.55
2018-06-28T04:34:28.367Z,32.27
2018-06-28T04:35:28.396Z,31.98
2018-06-28T04:36:28.426Z,31.70
2018-06-28T04:37:28.460Z,31.51
2018-06-28T04:38:49.498Z,31.23
2018-06-28T04:39:28.507Z,31.23
2018-06-28T04:40:28.541Z,30.83
2018-06-28T04:41:28.568Z,30.26
2018-06-28T04:42:28.597Z,29.79
2018-06-28T04:43:28.625Z,30.18
2018-06-28T04:44:49.663Z,29.30
2018-06-28T04:45:28.677Z,29.10
2018-06-28T04:46:28.713Z,29.21
2018-06-28T04:47:28.740Z,29.21
2018-06-28T04:48:28.766Z,28.92
2018-06-28T04:49:28.795Z,29.02
2018-06-28T04:50:49.843Z,28.82
2018-06-28T04:51:28.868Z,28.64
2018-06-28T04:52:28.886Z,28.44
2018-06-28T04:53:28.924Z,28.55
2018-06-28T04:54:28.944Z,28.36
2018-06-28T04:55:28.975Z,28.36
2018-06-28T04:56:50.027Z,28.65
2018-06-28T04:57:29.039Z,27.88
2018-06-28T04:58:29.075Z,27.69
2018-06-28T04:59:29.098Z,27.70
2018-06-28T05:00:29.127Z,27.20
2018-06-28T05:01:29.155Z,27.20
2018-06-28T05:02:50.211Z,26.91
2018-06-28T05:03:29.224Z,26.92
2018-06-28T05:04:29.254Z,26.63
2018-06-28T05:05:29.280Z,26.73
2018-06-28T05:06:29.314Z,26.73
2018-06-28T05:07:29.345Z,27.01
2018-06-28T05:08:50.399Z,26.91
2018-06-28T05:09:29.410Z,27.19
2018-06-28T05:10:29.436Z,27.87
2018-06-28T05:11:29.468Z,28.64
2018-06-28T05:12:29.503Z,28.72
2018-06-28T05:13:29.535Z,29.39
2018-06-28T05:14:50.589Z,30.16
2018-06-28T05:15:29.602Z,30.26
2018-06-28T05:16:29.629Z,30.54
2018-06-28T05:17:29.662Z,31.11
2018-06-28T05:18:29.697Z,31.60
2018-06-28T05:19:29.729Z,31.31
2018-06-28T05:20:50.778Z,31.68
2018-06-28T05:21:29.789Z,31.96
2018-06-28T05:22:29.824Z,32.35
2018-06-28T05:23:29.857Z,32.26
2018-06-28T05:24:29.893Z,32.45
2018-06-28T05:25:29.929Z,32.65
2018-06-28T05:26:50.976Z,33.22
2018-06-28T05:27:29.987Z,33.12
2018-06-28T05:28:30.024Z,33.12
2018-06-28T05:29:30.056Z,33.51
2018-06-28T05:30:30.089Z,34.08
2018-06-28T05:31:30.122Z,34.38
2018-06-28T05:32:51.172Z,34.18
2018-06-28T05:33:30.181Z,34.18
2018-06-28T05:34:30.265Z,34.38
2018-06-28T05:35:30.253Z,34.38
2018-06-28T05:36:30.280Z,34.65
2018-06-28T05:37:30.315Z,34.65
2018-06-28T05:38:51.363Z,35.14
2018-06-28T05:39:30.376Z,35.14
2018-06-28T05:40:30.411Z,35.33
2018-06-28T05:41:30.445Z,35.24
2018-06-28T05:42:30.467Z,35.43
2018-06-28T05:43:30.504Z,34.96
2018-06-28T05:44:51.557Z,34.38
2018-06-28T05:45:30.573Z,34.19
2018-06-28T05:46:30.603Z,32.94
2018-06-28T05:47:30.634Z,32.48
2018-06-28T05:48:30.661Z,31.90
2018-06-28T05:49:30.694Z,31.52
2018-06-28T05:50:51.779Z,31.24
2018-06-28T05:51:30.756Z,30.77
2018-06-28T05:52:30.782Z,30.18
2018-06-28T05:53:30.814Z,29.90
2018-06-28T05:54:30.846Z,29.70
2018-06-28T05:55:30.876Z,29.03
2018-06-28T05:56:51.930Z,29.33
2018-06-28T05:57:30.941Z,29.33
2018-06-28T05:58:31.140Z,29.34
2018-06-28T05:59:31.002Z,28.75
2018-06-28T06:00:31.027Z,28.47
2018-06-28T06:01:31.060Z,28.49
2018-06-28T06:02:52.107Z,28.49
2018-06-28T06:03:31.117Z,28.29
2018-06-28T06:04:31.150Z,28.00
2018-06-28T06:05:31.182Z,27.91
2018-06-28T06:06:31.210Z,27.71
2018-06-28T06:07:31.239Z,27.43
2018-06-28T06:08:52.290Z,28.11
2018-06-28T06:09:31.303Z,27.51
2018-06-28T06:10:31.332Z,27.04
2018-06-28T06:11:31.361Z,27.14
2018-06-28T06:12:31.387Z,27.04
2018-06-28T06:13:31.419Z,26.65
2018-06-28T06:14:52.473Z,26.64
2018-06-28T06:15:31.483Z,26.65
2018-06-28T06:16:31.510Z,26.36
2018-06-28T06:17:31.541Z,26.17
2018-06-28T06:18:31.574Z,26.45
2018-06-28T06:19:31.605Z,26.26
2018-06-28T06:20:52.659Z,26.26
2018-06-28T06:21:31.692Z,26.36
2018-06-28T06:22:31.696Z,26.36
2018-06-28T06:23:31.727Z,26.17
2018-06-28T06:24:31.764Z,26.36
2018-06-28T06:25:31.795Z,26.36
2018-06-28T06:26:52.851Z,26.45
2018-06-28T06:27:31.861Z,27.49
2018-06-28T06:28:31.887Z,28.15
2018-06-28T06:29:31.976Z,29.69
2018-06-28T06:30:31.958Z,30.64
2018-06-28T06:31:31.993Z,31.51
2018-06-28T06:32:53.033Z,32.35
2018-06-28T06:33:32.046Z,32.53
2018-06-28T06:34:32.076Z,33.12
2018-06-28T06:35:32.107Z,33.98
2018-06-28T06:36:32.143Z,34.18
2018-06-28T06:37:32.174Z,34.55
2018-06-28T06:38:53.221Z,35.31
2018-06-28T06:39:32.234Z,35.12
2018-06-28T06:40:32.269Z,35.41
2018-06-28T06:41:32.302Z,36.37
2018-06-28T06:42:32.352Z,36.08
2018-06-28T06:43:32.359Z,36.55
2018-06-28T06:44:53.403Z,36.94
2018-06-28T06:45:32.419Z,36.94
2018-06-28T06:46:32.449Z,37.43
2018-06-28T06:47:32.480Z,37.50
2018-06-28T06:48:32.511Z,37.99
2018-06-28T06:49:32.536Z,38.09
2018-06-28T06:51:32.599Z,38.17
2018-06-28T06:52:32.630Z,38.56
2018-06-28T06:53:32.659Z,38.46
2018-06-28T06:54:32.684Z,38.85
2018-06-28T06:55:32.713Z,39.12
2018-06-28T06:58:04.624Z,39.61
2018-06-28T06:59:04.626Z,39.51
2018-06-28T07:00:04.659Z,39.61
2018-06-28T07:01:04.685Z,40.17
2018-06-28T07:02:04.712Z,40.56
2018-06-28T07:03:04.741Z,40.09
2018-06-28T07:04:04.777Z,40.37
2018-06-28T07:05:04.804Z,41.05
2018-06-28T07:06:04.833Z,40.95
2018-06-28T07:07:04.862Z,40.66
2018-06-28T07:08:04.891Z,41.05
2018-06-28T07:09:04.914Z,40.85
2018-06-28T07:10:04.950Z,40.85
2018-06-28T07:11:04.976Z,41.22
2018-06-28T07:12:04.997Z,41.44
2018-06-28T07:13:05.028Z,41.22
2018-06-28T07:14:05.055Z,41.51
2018-06-28T07:15:05.084Z,41.42
2018-06-28T07:16:05.163Z,41.51
2018-06-28T07:17:05.145Z,41.71
2018-06-28T07:18:05.168Z,41.88
2018-06-28T07:19:05.195Z,42.18
2018-06-28T07:20:05.226Z,41.61
2018-06-28T07:21:05.256Z,42.00
2018-06-28T07:22:05.306Z,41.78
2018-06-28T07:23:05.328Z,41.98
2018-06-28T07:24:05.333Z,41.98
2018-06-28T07:25:05.359Z,42.08
2018-06-28T07:26:05.393Z,42.18
2018-06-28T07:27:05.423Z,42.27
2018-06-28T07:28:05.446Z,42.66
2018-06-28T07:29:05.472Z,41.88
2018-06-28T07:30:05.492Z,42.18
2018-06-28T07:31:05.526Z,42.18
2018-06-28T07:32:05.557Z,42.64
2018-06-28T07:33:05.635Z,42.05
2018-06-28T07:34:05.623Z,42.36
2018-06-28T07:35:05.636Z,42.05
2018-06-28T07:36:05.670Z,42.15
2018-06-28T07:37:05.695Z,42.93
2018-06-28T07:38:05.721Z,42.35
2018-06-28T07:39:05.749Z,42.64
2018-06-28T07:40:05.774Z,42.64
2018-06-28T07:41:05.802Z,42.64
2018-06-28T07:42:05.833Z,42.83
2018-06-28T07:43:05.858Z,42.83
2018-06-28T07:44:05.882Z,42.81
2018-06-28T07:45:05.908Z,42.61
2018-06-28T07:46:05.935Z,42.91
2018-06-28T07:47:05.965Z,42.71
2018-06-28T07:48:05.996Z,42.81
2018-06-28T07:49:06.090Z,42.81
2018-06-28T07:50:06.041Z,42.61
2018-06-28T07:51:06.068Z,43.10
2018-06-28T07:52:06.099Z,42.91
2018-06-28T07:53:06.127Z,43.20
2018-06-28T07:54:06.154Z,42.81
2018-06-28T07:55:06.182Z,42.91
2018-06-28T07:56:06.204Z,43.37
2018-06-28T07:57:06.231Z,43.30
2018-06-28T07:58:06.260Z,43.01
2018-06-28T07:59:06.287Z,43.27
2018-06-28T08:00:06.327Z,43.37
2018-06-28T08:01:06.335Z,42.99
2018-06-28T08:02:06.366Z,43.18
2018-06-28T08:03:06.394Z,42.99
2018-06-28T08:04:06.422Z,42.99
2018-06-28T08:05:06.447Z,43.08
2018-06-28T08:06:06.472Z,42.89
2018-06-28T08:07:06.497Z,43.47
2018-06-28T08:08:06.529Z,43.27
2018-06-28T08:09:06.558Z,43.57
2018-06-28T08:10:06.586Z,43.57
2018-06-28T08:11:06.610Z,43.86
2018-06-28T08:12:06.628Z,43.86
2018-06-28T08:13:06.654Z,43.47
2018-06-28T08:14:06.690Z,43.76
2018-06-28T08:15:06.711Z,43.57
2018-06-28T08:16:06.739Z,43.76
2018-06-28T08:17:06.810Z,43.74
2018-06-28T08:18:06.787Z,43.64
2018-06-28T08:19:06.813Z,43.93
2018-06-28T08:20:06.840Z,44.13
2018-06-28T08:21:07.478Z,44.03
2018-06-28T08:22:06.893Z,44.03
2018-06-28T08:23:06.923Z,44.51
2018-06-28T08:24:06.949Z,44.42
2018-06-28T08:25:06.971Z,44.23
2018-06-28T08:26:07.005Z,44.23
2018-06-28T08:27:07.028Z,44.32
2018-06-28T08:28:07.059Z,44.51
2018-06-28T08:29:07.078Z,44.13
2018-06-28T08:30:07.106Z,44.13
2018-06-28T08:31:07.135Z,43.64
2018-06-28T08:32:07.156Z,44.01
2018-06-28T08:33:07.185Z,44.03
2018-06-28T08:34:07.206Z,43.43
2018-06-28T08:35:07.234Z,43.64
2018-06-28T08:36:07.307Z,43.72
2018-06-28T08:37:07.294Z,43.52
2018-06-28T08:38:07.316Z,43.52
2018-06-28T08:39:07.342Z,43.52
2018-06-28T08:40:07.365Z,43.62
2018-06-28T08:41:07.405Z,43.23
2018-06-28T08:42:07.415Z,43.23
2018-06-28T08:43:07.475Z,43.52
2018-06-28T08:44:07.468Z,44.01
2018-06-28T08:45:07.494Z,44.10
2018-06-28T08:46:07.521Z,43.91
2018-06-28T08:47:07.545Z,44.10
2018-06-28T08:48:07.606Z,44.10
2018-06-28T08:49:07.711Z,44.10
2018-06-28T08:50:07.630Z,44.01
2018-06-28T08:51:07.665Z,44.01
2018-06-28T08:52:07.680Z,44.01
2018-06-28T08:53:07.697Z,43.82
2018-06-28T08:54:07.967Z,44.10
2018-06-28T08:55:07.765Z,44.20
2018-06-28T08:56:07.792Z,43.91
2018-06-28T08:57:07.800Z,44.40
2018-06-28T08:58:07.887Z,44.20
2018-06-28T08:59:07.851Z,44.30
2018-06-28T09:00:07.886Z,44.01
2018-06-28T09:01:07.913Z,44.01
2018-06-28T09:02:07.960Z,43.91
2018-06-28T09:03:07.949Z,44.10
2018-06-28T09:04:07.988Z,44.68
2018-06-28T09:05:08.009Z,44.20
2018-06-28T09:06:08.041Z,44.20
2018-06-28T09:07:08.064Z,44.20
2018-06-28T09:08:08.087Z,44.20
2018-06-28T09:09:09.112Z,44.68
2018-06-28T09:10:08.140Z,44.59
2018-06-28T09:11:08.170Z,44.68
2018-06-28T09:12:08.190Z,44.49
2018-06-28T09:13:08.215Z,44.40
2018-06-28T09:14:08.238Z,44.27
2018-06-28T09:15:08.268Z,44.37
2018-06-28T09:16:08.293Z,44.27
2018-06-28T09:17:08.317Z,44.47
2018-06-28T09:18:08.341Z,44.67
2018-06-28T09:19:08.372Z,44.37
2018-06-28T09:20:08.405Z,44.67
2018-06-28T09:21:08.423Z,44.37
2018-06-28T09:22:08.445Z,44.18
2018-06-28T09:23:08.563Z,44.18
2018-06-28T09:24:08.491Z,44.47
2018-06-28T09:25:08.518Z,44.47
2018-06-28T09:26:08.551Z,44.27
2018-06-28T09:27:08.577Z,44.37
2018-06-28T09:28:08.595Z,44.47
2018-06-28T09:29:08.621Z,44.37
2018-06-28T09:30:08.649Z,44.27
2018-06-28T09:31:08.672Z,44.27
2018-06-28T09:32:08.703Z,44.57
2018-06-28T09:33:08.751Z,44.47
2018-06-28T09:34:08.749Z,44.47
2018-06-28T09:35:08.776Z,44.37
2018-06-28T09:36:08.803Z,44.37
2018-06-28T09:37:08.831Z,44.45
2018-06-28T09:38:08.850Z,44.35
2018-06-28T09:39:08.878Z,44.84
2018-06-28T09:40:08.902Z,45.03
2018-06-28T09:41:08.930Z,44.84
2018-06-28T09:42:08.983Z,44.37
2018-06-28T09:43:08.978Z,44.26
2018-06-28T09:44:08.999Z,44.35
2018-06-28T09:45:09.023Z,44.47
2018-06-28T09:46:09.060Z,44.27
2018-06-28T09:47:09.077Z,44.16
2018-06-28T09:48:09.108Z,44.57
2018-06-28T09:49:09.131Z,43.87
2018-06-28T09:50:09.150Z,44.26
2018-06-28T09:51:09.185Z,43.87
2018-06-28T09:52:09.205Z,43.87
2018-06-28T09:53:09.232Z,44.06
2018-06-28T09:54:09.258Z,43.96
2018-06-28T09:55:09.281Z,43.87
2018-06-28T09:56:09.311Z,43.96
2018-06-28T09:57:09.367Z,43.96
2018-06-28T09:58:09.357Z,43.58
2018-06-28T09:59:09.385Z,43.87
2018-06-28T10:00:09.431Z,43.96
2018-06-28T10:01:09.430Z,43.58
2018-06-28T10:02:09.452Z,43.96
2018-06-28T10:03:09.506Z,43.87
2018-06-28T10:04:09.509Z,44.06
2018-06-28T10:05:09.531Z,43.68
2018-06-28T10:06:09.561Z,43.77
2018-06-28T10:07:09.579Z,44.06
2018-06-28T10:08:09.615Z,43.96
2018-06-28T10:09:09.633Z,43.68
2018-06-28T10:10:09.656Z,43.87
2018-06-28T10:11:09.680Z,43.77
2018-06-28T10:12:09.706Z,43.96
2018-06-28T10:13:09.757Z,44.06
2018-06-28T10:14:09.762Z,44.16
2018-06-28T10:15:09.784Z,44.06
2018-06-28T10:16:09.813Z,43.96
2018-06-28T10:17:09.827Z,43.87
2018-06-28T10:18:09.905Z,43.48
2018-06-28T10:19:09.881Z,43.96
2018-06-28T10:20:09.907Z,43.96
2018-06-28T10:21:09.973Z,43.96
2018-06-28T10:22:09.951Z,43.96
2018-06-28T10:23:09.976Z,44.16
2018-06-28T10:24:10.006Z,44.06
2018-06-28T10:25:10.275Z,44.06
2018-06-28T10:26:10.062Z,43.96
2018-06-28T10:27:10.088Z,43.96
2018-06-28T10:28:10.107Z,44.06
2018-06-28T10:29:10.128Z,43.77
2018-06-28T10:30:10.157Z,43.58
2018-06-28T10:31:10.181Z,43.77
2018-06-28T10:32:10.206Z,43.96
2018-06-28T10:33:10.232Z,44.26
2018-06-28T10:34:10.250Z,43.87
2018-06-28T10:35:10.275Z,43.96
2018-06-28T10:36:10.331Z,44.06
2018-06-28T10:37:10.329Z,44.16
2018-06-28T10:38:10.351Z,44.16
2018-06-28T10:39:10.380Z,43.96
2018-06-28T10:40:10.406Z,44.16
2018-06-28T10:41:10.429Z,43.68
2018-06-28T10:42:10.453Z,43.58
2018-06-28T10:43:10.480Z,43.58
2018-06-28T10:44:10.515Z,43.38
2018-06-28T10:45:10.527Z,43.87
2018-06-28T10:46:10.552Z,43.68
2018-06-28T10:47:10.574Z,43.58
2018-06-28T10:48:10.603Z,43.38
2018-06-28T10:49:10.642Z,43.00
2018-06-28T10:50:10.655Z,42.90
2018-06-28T10:51:10.680Z,42.90
2018-06-28T10:52:10.702Z,43.00
2018-06-28T10:53:10.727Z,43.09
2018-06-28T10:54:10.755Z,42.80
2018-06-28T10:55:10.778Z,42.61
2018-06-28T10:56:10.798Z,42.80
2018-06-28T10:57:10.821Z,42.97
2018-06-28T10:58:10.846Z,42.97
2018-06-28T10:59:10.873Z,43.00
2018-06-28T11:00:10.903Z,42.88
2018-06-28T11:01:10.927Z,42.88
2018-06-28T11:02:10.951Z,42.68
2018-06-28T11:03:10.973Z,42.59
2018-06-28T11:04:11.002Z,42.59
2018-06-28T11:05:11.027Z,42.49
2018-06-28T11:06:11.048Z,42.10
2018-06-28T11:07:11.074Z,42.30
2018-06-28T11:08:11.104Z,42.40
2018-06-28T11:09:11.132Z,42.30
2018-06-28T11:10:11.153Z,42.40
2018-06-28T11:11:11.175Z,42.00
2018-06-28T11:12:11.196Z,42.20
2018-06-28T11:13:11.223Z,42.20
2018-06-28T11:14:11.247Z,42.20
2018-06-28T11:15:11.266Z,41.82
2018-06-28T11:16:11.297Z,42.40
2018-06-28T11:17:11.321Z,41.82
2018-06-28T11:18:11.345Z,41.91
2018-06-28T11:19:11.369Z,42.00
2018-06-28T11:20:11.395Z,41.52
2018-06-28T11:21:11.420Z,41.72
2018-06-28T11:22:11.449Z,41.82
2018-06-28T11:23:11.471Z,41.62
2018-06-28T11:24:11.496Z,41.52
2018-06-28T11:25:11.549Z,41.82
2018-06-28T11:26:11.551Z,41.91
2018-06-28T11:27:11.568Z,41.82
2018-06-28T11:28:11.593Z,41.91
2018-06-28T11:29:11.616Z,41.62
2018-06-28T11:30:11.691Z,41.91
2018-06-28T11:31:11.666Z,41.82
2018-06-28T11:32:11.697Z,41.24
2018-06-28T11:33:11.718Z,41.33
2018-06-28T11:34:11.896Z,41.33
2018-06-28T11:35:11.764Z,41.42
2018-06-28T11:36:11.819Z,41.33
2018-06-28T11:37:11.826Z,41.33
2018-06-28T11:38:11.840Z,41.33
2018-06-28T11:39:11.866Z,41.24
2018-06-28T11:40:11.887Z,41.24
2018-06-28T11:41:11.910Z,41.52
2018-06-28T11:42:11.940Z,40.94
2018-06-28T11:43:11.966Z,41.04
2018-06-28T11:44:11.986Z,40.75
2018-06-28T11:45:12.009Z,40.75
2018-06-28T11:46:12.033Z,41.14
2018-06-28T11:47:12.060Z,40.94
2018-06-28T11:48:12.088Z,40.65
2018-06-28T11:49:12.114Z,40.65
2018-06-28T11:50:12.185Z,40.75
2018-06-28T11:51:12.159Z,40.56
2018-06-28T11:52:12.193Z,40.65
2018-06-28T11:53:12.213Z,40.56
2018-06-28T11:54:12.235Z,40.75
2018-06-28T11:55:12.259Z,40.36
2018-06-28T11:56:12.281Z,40.75
2018-06-28T11:57:12.303Z,40.17
2018-06-28T11:58:12.335Z,40.17
2018-06-28T11:59:12.489Z,40.07
2018-06-28T12:00:12.429Z,39.97
2018-06-28T12:01:12.406Z,39.88
2018-06-28T12:02:12.434Z,40.07
2018-06-28T12:03:12.479Z,39.97
2018-06-28T12:04:12.481Z,39.97
2018-06-28T12:05:12.553Z,40.17
2018-06-28T12:06:12.527Z,40.36
2018-06-28T12:07:12.551Z,40.26
2018-06-28T12:08:12.583Z,40.26
2018-06-28T12:09:12.601Z,40.26
2018-06-28T12:10:12.630Z,40.07
2018-06-28T12:11:12.657Z,40.17
2018-06-28T12:12:12.683Z,40.26
2018-06-28T12:13:12.702Z,39.88
2018-06-28T12:14:12.727Z,39.97
2018-06-28T12:15:12.754Z,39.88
2018-06-28T12:16:12.776Z,39.88
2018-06-28T12:17:12.798Z,39.49
2018-06-28T12:18:12.859Z,40.26
2018-06-28T12:19:12.852Z,39.59
2018-06-28T12:20:12.878Z,39.49
2018-06-28T12:21:12.901Z,39.49
2018-06-28T12:22:12.921Z,39.39
2018-06-28T12:23:12.947Z,39.20
2018-06-28T12:24:12.977Z,39.29
2018-06-28T12:25:13.007Z,39.11
2018-06-28T12:26:13.025Z,39.20
2018-06-28T12:27:13.048Z,39.11
2018-06-28T12:28:13.080Z,39.29
2018-06-28T12:29:13.123Z,39.39
2018-06-28T12:30:13.123Z,39.39
2018-06-28T12:31:13.154Z,39.39
2018-06-28T12:32:13.170Z,39.20
2018-06-28T12:33:13.193Z,39.29
2018-06-28T12:34:13.231Z,39.01
2018-06-28T12:35:13.241Z,39.11
2018-06-28T12:36:13.273Z,39.20
2018-06-28T12:37:13.297Z,39.01
2018-06-28T12:38:13.319Z,39.20
2018-06-28T12:39:13.383Z,39.18
2018-06-28T12:40:13.371Z,39.09
2018-06-28T12:41:13.392Z,39.20
2018-06-28T12:42:13.419Z,39.29
2018-06-28T12:43:13.443Z,39.01
2018-06-28T12:44:13.466Z,39.29
2018-06-28T12:45:13.490Z,39.20
2018-06-28T12:46:13.548Z,39.18
2018-06-28T12:47:13.539Z,39.18
2018-06-28T12:48:13.572Z,38.99
2018-06-28T12:49:13.584Z,39.11
2018-06-28T12:50:13.614Z,39.01
2018-06-28T12:51:13.637Z,39.18
2018-06-28T12:52:13.665Z,39.18
2018-06-28T12:53:13.692Z,39.29
2018-06-28T12:54:13.738Z,39.09
2018-06-28T12:55:13.816Z,39.29